< < Back
Terminal Aerodrome Forecast


Current Version              Previous Versions:   1  2  3  4  5  6  7  8  9  

Terminal Aerodrome Forecast

790
FTUS42 KCAE 182300
TAFCAE
TAF
KCAE 182339Z 1900/1924 VRB03KT P6SM SCT060 SCT200
     FM191500 05003KT P6SM BKN250=



Latest METAR

128
SAUS80 KWBC 190600 CCA
MTRCAE
METAR KCAE 190556Z 00000KT 10SM FEW055 04/02 A3009 RMK AO2 SLP190
T00390022 10100 20039 58004


USA.gov is the U.S. government's official web portal to all federal, state and local government web resources and services.